Mt Champion Express — A8QN4 — position and weather

sailwx.info

Track history (hours):
 
Tides and Currents Weather Stations Pressure Air Temp Water Temp Dewpoint Dewpoint Depression Visibility Wind Speed Wind Dir Waves Ship Positions

Mt Champion Express

Last reported at 2017-Jan-04 02:24 UTC. Time now 2017-Jan-22 10:03 UTC.
Position N 38°15' W 030°26'.
Warning: this ship's position is 18 days out of date.

Length 192 m; draft 7 m.

Type: Tanker. MMSI: 636013968.

Date/timePositionNaut miles runAvg speedWind from/ knotsBaromVisibWave heightAir tempDewpointWater temp
2017-Jan-04 02:24N 38°15' W 030°26'910.4
2017-Jan-04 01:33N 38°19' W 030°17'1110.6
2017-Jan-04 00:33N 38°25' W 030°05'1111.0
2017-Jan-03 23:33N 38°30' W 029°53'1111.3
2017-Jan-03 22:33N 38°36' W 029°41'1111.2
2017-Jan-03 21:33N 38°42' W 029°29'1110.9
2017-Jan-03 20:33N 38°48' W 029°17'1110.7
2017-Jan-03 19:33N 38°53' W 029°05'1111.1
2017-Jan-03 18:33N 38°59' W 028°52'1111.1
2017-Jan-03 17:33N 39°04' W 028°40'1111.1
2017-Jan-03 16:33N 39°10' W 028°28'1110.8
2017-Jan-03 15:33N 39°16' W 028°16'1111.0
2017-Jan-03 14:33N 39°22' W 028°04'1111.4
2017-Jan-03 13:33N 39°27' W 027°51'1111.3
2017-Jan-03 12:33N 39°33' W 027°39'  
2016-Dec-30 08:31N 49°21' W 004°57'2411.3
2016-Dec-30 06:26N 49°33' W 004°26'2010.5
2016-Dec-30 04:31N 49°43' W 003°59'1111.3
2016-Dec-30 03:34N 49°49' W 003°45'1212.3
2016-Dec-30 02:34N 49°55' W 003°28'1313.4
2016-Dec-30 01:33N 49°59' W 003°08'1413.6
2016-Dec-30 00:33N 50°02' W 002°48'1313.0
2016-Dec-29 23:34N 50°05' W 002°28'1311.5
2016-Dec-29 22:27N 50°09' W 002°09'9 9.9
2016-Dec-29 21:33N 50°11' W 001°56'9 8.9
2016-Dec-29 20:34N 50°13' W 001°42'9 8.7
2016-Dec-29 19:34N 50°15' W 001°29'4 3.8
2016-Dec-29 18:34N 50°16' W 001°23'1 1.4
2016-Dec-29 17:33N 50°16' W 001°26'1 0.5
2016-Dec-29 16:33N 50°16' W 001°25'1 1.2
2016-Dec-29 15:33N 50°16' W 001°23'1313.1
2016-Dec-29 14:33N 50°20' W 001°03'1515.2
2016-Dec-29 13:33N 50°23' W 000°40'1414.2
2016-Dec-29 12:33N 50°27' W 000°19'1313.0
2016-Dec-29 11:33N 50°30' E 000°01'1212.0
2016-Dec-29 10:33N 50°33' E 000°20'1111.1
2016-Dec-29 09:33N 50°38' E 000°35'1111.2
2016-Dec-29 08:33N 50°45' E 000°49'1212.4
2016-Dec-29 07:33N 50°53' E 001°05'1414.3
2016-Dec-29 06:33N 51°02' E 001°22'1514.8
2016-Dec-29 05:34N 51°11' E 001°41'1312.7
2016-Dec-29 04:34N 51°21' E 001°51'1211.6
2016-Dec-29 03:33N 51°31' E 002°02'1111.0
2016-Dec-29 02:33N 51°39' E 002°14'1110.6
2016-Dec-29 01:33N 51°47' E 002°25'1110.6
2016-Dec-29 00:33N 51°56' E 002°35'1211.5
2016-Dec-28 23:33N 52°07' E 002°42'1612.7
2016-Dec-28 22:16N 52°22' E 002°52'1013.1
2016-Dec-28 21:28N 52°31' E 002°58'1213.3
2016-Dec-28 20:32N 52°43' E 003°07'1313.3
2016-Dec-28 19:33N 52°55' E 003°15'1312.8
2016-Dec-28 18:33N 53°07' E 003°21'402 8.9
2016-Dec-26 21:29N 58°43' E 009°53'5 5.0
2016-Dec-26 20:28N 58°48' E 009°52'4 4.4
2016-Dec-26 19:33N 58°52' E 009°50'7 4.9
2016-Dec-26 18:06N 58°59' E 009°47'5 8.4
2016-Dec-26 17:33N 59°03' E 009°42'  
Track history (hours):
 
Tides and Currents Weather Stations Pressure Air Temp Water Temp Dewpoint Dewpoint Depression Visibility Wind Speed Wind Dir Waves Ship Positions

Mt Champion Express

Last reported at 2017-Jan-04 02:24 UTC. Time now 2017-Jan-22 10:03 UTC.
Position N 38°15' W 030°26'.
Warning: this ship's position is 18 days out of date.

Length 192 m; draft 7 m.

Type: Tanker. MMSI: 636013968.

Date/timePositionNaut miles runAvg speedWind from/ knotsBaromVisibWave heightAir tempDewpointWater temp
2017-Jan-04 02:24N 38°15' W 030°26'910.4
2017-Jan-04 01:33N 38°19' W 030°17'1110.6
2017-Jan-04 00:33N 38°25' W 030°05'1111.0
2017-Jan-03 23:33N 38°30' W 029°53'1111.3
2017-Jan-03 22:33N 38°36' W 029°41'1111.2
2017-Jan-03 21:33N 38°42' W 029°29'1110.9
2017-Jan-03 20:33N 38°48' W 029°17'1110.7
2017-Jan-03 19:33N 38°53' W 029°05'1111.1
2017-Jan-03 18:33N 38°59' W 028°52'1111.1
2017-Jan-03 17:33N 39°04' W 028°40'1111.1
2017-Jan-03 16:33N 39°10' W 028°28'1110.8
2017-Jan-03 15:33N 39°16' W 028°16'1111.0
2017-Jan-03 14:33N 39°22' W 028°04'1111.4
2017-Jan-03 13:33N 39°27' W 027°51'1111.3
2017-Jan-03 12:33N 39°33' W 027°39'  
2016-Dec-30 08:31N 49°21' W 004°57'2411.3
2016-Dec-30 06:26N 49°33' W 004°26'2010.5
2016-Dec-30 04:31N 49°43' W 003°59'1111.3
2016-Dec-30 03:34N 49°49' W 003°45'1212.3
2016-Dec-30 02:34N 49°55' W 003°28'1313.4
2016-Dec-30 01:33N 49°59' W 003°08'1413.6
2016-Dec-30 00:33N 50°02' W 002°48'1313.0
2016-Dec-29 23:34N 50°05' W 002°28'1311.5
2016-Dec-29 22:27N 50°09' W 002°09'9 9.9
2016-Dec-29 21:33N 50°11' W 001°56'9 8.9
2016-Dec-29 20:34N 50°13' W 001°42'9 8.7
2016-Dec-29 19:34N 50°15' W 001°29'4 3.8
2016-Dec-29 18:34N 50°16' W 001°23'1 1.4
2016-Dec-29 17:33N 50°16' W 001°26'1 0.5
2016-Dec-29 16:33N 50°16' W 001°25'1 1.2
2016-Dec-29 15:33N 50°16' W 001°23'1313.1
2016-Dec-29 14:33N 50°20' W 001°03'1515.2
2016-Dec-29 13:33N 50°23' W 000°40'1414.2
2016-Dec-29 12:33N 50°27' W 000°19'1313.0
2016-Dec-29 11:33N 50°30' E 000°01'1212.0
2016-Dec-29 10:33N 50°33' E 000°20'1111.1
2016-Dec-29 09:33N 50°38' E 000°35'1111.2
2016-Dec-29 08:33N 50°45' E 000°49'1212.4
2016-Dec-29 07:33N 50°53' E 001°05'1414.3
2016-Dec-29 06:33N 51°02' E 001°22'1514.8
2016-Dec-29 05:34N 51°11' E 001°41'1312.7
2016-Dec-29 04:34N 51°21' E 001°51'1211.6
2016-Dec-29 03:33N 51°31' E 002°02'1111.0
2016-Dec-29 02:33N 51°39' E 002°14'1110.6
2016-Dec-29 01:33N 51°47' E 002°25'1110.6
2016-Dec-29 00:33N 51°56' E 002°35'1211.5
2016-Dec-28 23:33N 52°07' E 002°42'1612.7
2016-Dec-28 22:16N 52°22' E 002°52'1013.1
2016-Dec-28 21:28N 52°31' E 002°58'1213.3
2016-Dec-28 20:32N 52°43' E 003°07'1313.3
2016-Dec-28 19:33N 52°55' E 003°15'1312.8
2016-Dec-28 18:33N 53°07' E 003°21'402 8.9
2016-Dec-26 21:29N 58°43' E 009°53'5 5.0
2016-Dec-26 20:28N 58°48' E 009°52'4 4.4
2016-Dec-26 19:33N 58°52' E 009°50'7 4.9
2016-Dec-26 18:06N 58°59' E 009°47'5 8.4
2016-Dec-26 17:33N 59°03' E 009°42'  

Dump ship's entire track history